Bookmark and Share
Track history (hours):
 

Helas

Last reported at 2014-Apr-17 06:33 UTC. Time now 2014-Apr-17 06:44 UTC.
Position N 50°37' E 000°28'.

Length 89 m; draft 5.1 m.

Type: Cargo ship. MMSI: 210031000.

NotesDate/timePositionNaut miles runAvg speedWind from/ knotsBaromVisibWave heightAir tempDewpointWater temp
2014-Apr-17 06:33N 50°37' E 000°28'1111.3
2014-Apr-17 05:33N 50°43' E 000°43'1110.5
2014-Apr-17 04:33N 50°48' E 000°57'9 9.5
2014-Apr-17 03:33N 50°55' E 001°09'8 8.5
2014-Apr-17 02:33N 51°00' E 001°19'7 6.9
2014-Apr-17 01:33N 51°05' E 001°27'7 6.6
2014-Apr-17 00:33N 51°09' E 001°36'8 7.8
2014-Apr-16 23:33N 51°14' E 001°45'1010.1
2014-Apr-16 22:34N 51°23' E 001°51'1211.9
2014-Apr-16 21:33N 51°32' E 002°04'1111.5
2014-Apr-16 20:33N 51°40' E 002°16'1211.6
2014-Apr-16 19:33N 51°49' E 002°29'1010.5
2014-Apr-16 18:33N 51°57' E 002°40'9 9.4
2014-Apr-16 17:33N 52°04' E 002°50'42 8.3
2014-Apr-16 12:33N 52°24' E 003°50'1010.3
2014-Apr-16 11:33N 52°25' E 004°06'1010.3
2014-Apr-16 10:33N 52°27' E 004°23'8 8.1
2014-Apr-16 09:32N 52°28' E 004°36'0 0.0
2014-Apr-16 08:31N 52°28' E 004°36'0 0.0
2014-Apr-16 07:31N 52°28' E 004°36'0 0.0
2014-Apr-16 06:31N 52°28' E 004°36'839838.6
2014-Apr-16 05:31N 38°29' E 004°36'839838.4
2014-Apr-16 04:31N 52°28' E 004°36'0 0.0
2014-Apr-16 03:31N 52°28' E 004°36'0 0.0
2014-Apr-16 02:31N 52°28' E 004°36'0 0.0
2014-Apr-16 01:31N 52°28' E 004°36'0 0.0
2014-Apr-16 00:31N 52°28' E 004°36'0 0.0
2014-Apr-15 23:31N 52°28' E 004°36'0 0.0
2014-Apr-15 22:28N 52°28' E 004°36'0 0.0
2014-Apr-15 21:31N 52°28' E 004°36'0 0.0
2014-Apr-15 20:31N 52°28' E 004°36'0 0.0
2014-Apr-15 19:31N 52°28' E 004°36'0 0.0
2014-Apr-15 18:31N 52°28' E 004°36'0 0.0
2014-Apr-15 17:31N 52°28' E 004°36'0 0.1
2014-Apr-15 16:31N 52°28' E 004°36'0 0.0
2014-Apr-15 15:31N 52°28' E 004°36'0 0.0
2014-Apr-15 14:31N 52°28' E 004°36'2 1.3
2014-Apr-15 12:34N 52°28' E 004°32'1010.4
2014-Apr-15 11:34N 52°29' E 004°15'10 9.8
2014-Apr-15 10:34N 52°36' E 004°04'1110.7
2014-Apr-15 09:34N 52°46' E 003°57'1111.0
2014-Apr-15 08:34N 52°56' E 003°60'1211.9
2014-Apr-15 07:34N 53°05' E 004°14'60 8.5
2014-Apr-15 00:32N 53°51' E 005°17'8 7.6
2014-Apr-14 23:32N 53°50' E 005°30'7 7.2
2014-Apr-14 22:33N 53°48' E 005°42'7 6.7
2014-Apr-14 21:33N 53°46' E 005°52'6 5.9
2014-Apr-14 20:33N 53°45' E 006°02'4 4.0
2014-Apr-14 19:34N 53°43' E 006°08'4 3.6
2014-Apr-14 18:34N 53°39' E 006°10'4 3.7
2014-Apr-14 17:33N 53°38' E 006°16'4 4.1
2014-Apr-14 16:33N 53°37' E 006°23'5 4.5
2014-Apr-14 15:30N 53°37' E 006°31'8 8.4
2014-Apr-14 14:34N 53°33' E 006°42'1111.5
2014-Apr-14 13:34N 53°25' E 006°56'10 2.0
2014-Apr-14 08:32N 53°21' E 007°12'0 0.0
2014-Apr-14 07:32N 53°21' E 007°12'0 0.0
2014-Apr-14 06:32N 53°21' E 007°12'0 0.0
2014-Apr-14 05:32N 53°21' E 007°12'0 0.0
2014-Apr-13 22:31N 53°21' E 007°12'0 0.0
2014-Apr-13 21:28N 53°21' E 007°12'0 0.0
2014-Apr-13 20:28N 53°21' E 007°12'0 0.0
2014-Apr-13 19:28N 53°21' E 007°12'0 0.0
2014-Apr-13 18:31N 53°21' E 007°12'0 0.0
2014-Apr-13 17:31N 53°21' E 007°12'0 0.0
2014-Apr-13 16:31N 53°21' E 007°12'0 0.0
2014-Apr-13 15:28N 53°21' E 007°12'0 0.0
2014-Apr-13 14:31N 53°21' E 007°12'0 0.0
2014-Apr-13 13:31N 53°21' E 007°12'0 0.0
2014-Apr-13 12:31N 53°21' E 007°12'0 0.0
2014-Apr-13 11:31N 53°21' E 007°12'0 0.0
2014-Apr-13 10:31N 53°21' E 007°12'0 0.0
2014-Apr-13 09:31N 53°21' E 007°12'0 0.0
2014-Apr-13 08:31N 53°21' E 007°12'0 0.0
2014-Apr-13 07:31N 53°21' E 007°12'0 0.0
2014-Apr-13 06:31N 53°21' E 007°12'0 0.0
2014-Apr-13 05:31N 53°21' E 007°12'0 0.0
2014-Apr-13 04:31N 53°21' E 007°12'0 0.0
2014-Apr-13 03:31N 53°21' E 007°12'0 0.0
2014-Apr-13 02:31N 53°21' E 007°12'0 0.0
2014-Apr-13 01:31N 53°21' E 007°12'0 0.0
2014-Apr-13 00:31N 53°21' E 007°12'0 0.0
2014-Apr-12 23:31N 53°21' E 007°12'0 0.0
2014-Apr-12 22:31N 53°21' E 007°12'0 0.0
2014-Apr-12 21:31N 53°21' E 007°12'0 0.0
2014-Apr-12 20:31N 53°21' E 007°12'0 0.0
2014-Apr-12 19:31N 53°21' E 007°12'0 0.0
2014-Apr-12 18:34N 53°21' E 007°12'0 0.0
2014-Apr-12 17:33N 53°21' E 007°12'0 0.0
2014-Apr-12 16:33N 53°21' E 007°12'0 0.0
2014-Apr-12 15:33N 53°21' E 007°12'0 0.0
2014-Apr-12 14:33N 53°21' E 007°12'0 0.0
2014-Apr-12 13:33N 53°21' E 007°12'0 0.0
2014-Apr-12 12:30N 53°21' E 007°12'0 0.0
2014-Apr-12 11:33N 53°21' E 007°12'0 0.0
2014-Apr-12 10:27N 53°21' E 007°12'0 0.0
2014-Apr-12 09:24N 53°21' E 007°12'0 0.0
2014-Apr-12 08:30N 53°21' E 007°12'0 0.0
2014-Apr-12 07:15N 53°21' E 007°12'0 0.0
2014-Apr-12 06:33N 53°21' E 007°12'0 0.0
2014-Apr-12 05:33N 53°21' E 007°12'0 0.0
2014-Apr-12 04:33N 53°21' E 007°12'0 0.0
2014-Apr-12 03:33N 53°21' E 007°12'0 0.0
2014-Apr-12 02:33N 53°21' E 007°12'0 0.0
2014-Apr-12 01:33N 53°21' E 007°12'0 0.0
2014-Apr-12 00:33N 53°21' E 007°12'0 0.0
2014-Apr-11 23:33N 53°21' E 007°12'0 0.0
2014-Apr-11 22:33N 53°21' E 007°12'0 0.0
2014-Apr-11 21:30N 53°21' E 007°12'0 0.0
2014-Apr-11 20:30N 53°21' E 007°12'0 0.0
2014-Apr-11 19:33N 53°21' E 007°12'0 0.0
2014-Apr-11 18:33N 53°21' E 007°12'0 0.0
2014-Apr-11 17:33N 53°21' E 007°12'0 0.0
2014-Apr-11 16:33N 53°21' E 007°12'0 0.0
2014-Apr-11 15:30N 53°21' E 007°12'0 0.0
2014-Apr-11 14:29N 53°21' E 007°12'  
2014-Apr-09 06:31N 53°21' E 007°12'0 0.0
2014-Apr-09 05:31N 53°21' E 007°12'0 0.0
2014-Apr-09 04:34N 53°21' E 007°12'0 0.0
2014-Apr-09 03:33N 53°21' E 007°12'0 0.0
2014-Apr-09 02:33N 53°21' E 007°12'0 0.0
2014-Apr-09 01:33N 53°21' E 007°12'0 0.0
2014-Apr-09 00:34N 53°21' E 007°12'0 0.0
2014-Apr-08 23:30N 53°21' E 007°12'0 0.0
2014-Apr-08 22:30N 53°21' E 007°12'0 0.0
2014-Apr-08 21:33N 53°21' E 007°12'0 0.0
2014-Apr-08 20:33N 53°21' E 007°12'0 0.0
2014-Apr-08 19:33N 53°21' E 007°12'0 0.0
2014-Apr-08 18:33N 53°21' E 007°12'0 0.0
2014-Apr-08 17:33N 53°21' E 007°12'0 0.0
2014-Apr-08 16:33N 53°21' E 007°12'0 0.0
2014-Apr-08 15:33N 53°21' E 007°12'0 0.0
2014-Apr-08 14:33N 53°21' E 007°12'0 0.0
2014-Apr-08 13:33N 53°21' E 007°12'0 0.0
2014-Apr-08 12:33N 53°21' E 007°12'0 0.0
2014-Apr-08 11:33N 53°21' E 007°12'0 0.0
2014-Apr-08 10:33N 53°21' E 007°12'0 0.0
2014-Apr-08 09:33N 53°21' E 007°12'0 0.0
2014-Apr-08 08:33N 53°21' E 007°12'0 0.0
2014-Apr-08 07:33N 53°21' E 007°12'0 0.0
2014-Apr-08 06:33N 53°21' E 007°12'0 0.0
2014-Apr-08 04:15N 53°21' E 007°12'0 0.0
2014-Apr-08 03:33N 53°21' E 007°12'0 0.0
2014-Apr-08 02:33N 53°21' E 007°12'0 0.0
2014-Apr-08 01:27N 53°21' E 007°12'0 0.0
2014-Apr-08 00:30N 53°21' E 007°12'0 0.0
2014-Apr-07 23:33N 53°21' E 007°12'0 0.0
2014-Apr-07 22:33N 53°21' E 007°12'0 0.0
2014-Apr-07 21:33N 53°21' E 007°12'0 0.0
2014-Apr-07 20:30N 53°21' E 007°12'0 0.0
2014-Apr-07 19:32N 53°21' E 007°12'0 0.0
2014-Apr-07 17:29N 53°21' E 007°12'0 0.0
2014-Apr-07 16:29N 53°21' E 007°12'0 0.0
2014-Apr-07 15:32N 53°21' E 007°12'0 0.0
2014-Apr-07 14:29N 53°21' E 007°12'0 0.0
2014-Apr-07 13:32N 53°21' E 007°12'0 0.0
2014-Apr-07 12:32N 53°21' E 007°12'0 0.0
2014-Apr-07 11:32N 53°21' E 007°12'0 0.0
2014-Apr-07 10:32N 53°21' E 007°12'0 0.0
2014-Apr-07 09:32N 53°21' E 007°12'0 0.0
2014-Apr-07 08:32N 53°21' E 007°12'  

Dump ship's entire track history

sailing weather and tide predictions

Helas — C4AZ2 — position and weather